Time;durP1;ratioP1;P1;durP2;ratioP2;P2;SDS_P1;SDS_P2;PMS_P1;PMS_P2;Temp;Humidity;BMP_temperature;BMP_pressure;BME280_temperature;BME280_humidity;BME280_pressure;Samples;Min_cycle;Max_cycle;Signal;HPM_P1;HPM_P2
2023/06/03 00:00:47;;;;;;;8.93;5.32;;;;;;;14.81;100.00;102000.88;5174534;28;20026;-75
2023/06/03 00:03:18;;;;;;;11.90;5.80;;;;;;;14.75;100.00;101994.34;5176216;28;20031;-75
2023/06/03 00:05:49;;;;;;;9.10;5.47;;;;;;;14.74;100.00;101992.69;5173966;28;20025;-75
2023/06/03 00:08:21;;;;;;;10.23;5.97;;;;;;;14.68;100.00;101979.16;5176616;28;20038;-75
2023/06/03 00:10:52;;;;;;;12.15;5.55;;;;;;;14.86;100.00;101992.59;5174513;28;20034;-75
2023/06/03 00:13:23;;;;;;;11.77;6.47;;;;;;;14.65;100.00;101990.78;5174029;28;20401;-76
2023/06/03 00:15:55;;;;;;;9.15;5.28;;;;;;;14.66;100.00;101981.94;5173993;28;20109;-75
2023/06/03 00:18:26;;;;;;;11.27;5.68;;;;;;;14.60;100.00;101985.91;5174577;28;20035;-75
2023/06/03 00:20:58;;;;;;;11.80;5.75;;;;;;;14.57;100.00;101986.16;5173346;28;20046;-75
2023/06/03 00:23:31;;;;;;;12.60;6.43;;;;;;;14.54;100.00;102002.22;5174383;28;20043;-75
2023/06/03 00:26:03;;;;;;;15.32;6.57;;;;;;;14.48;100.00;101991.34;5156424;28;20073;-75
2023/06/03 00:28:34;;;;;;;13.10;6.22;;;;;;;14.62;100.00;101995.50;5173634;28;20431;-75
2023/06/03 00:31:05;;;;;;;11.65;5.95;;;;;;;14.57;100.00;102001.16;5173438;28;20373;-75
2023/06/03 00:33:36;;;;;;;10.80;5.80;;;;;;;14.55;100.00;101997.81;5173793;28;20464;-75
2023/06/03 00:36:08;;;;;;;10.82;6.38;;;;;;;14.48;100.00;102000.09;5162840;28;20520;-75
2023/06/03 00:38:39;;;;;;;10.50;5.93;;;;;;;14.49;100.00;101990.38;5174030;28;20113;-75
2023/06/03 00:41:10;;;;;;;10.63;5.65;;;;;;;14.56;100.00;101999.50;5174347;28;20495;-75
2023/06/03 00:43:42;;;;;;;8.85;6.70;;;;;;;14.42;100.00;101991.84;5173787;28;20469;-75
2023/06/03 00:46:15;;;;;;;10.98;5.95;;;;;;;14.65;100.00;101998.72;5173769;28;20070;-75
2023/06/03 00:48:47;;;;;;;8.75;5.50;;;;;;;14.40;100.00;101991.16;5173761;28;20122;-75
2023/06/03 00:51:20;;;;;;;10.65;5.85;;;;;;;14.43;100.00;101996.16;5173822;28;20026;-75
2023/06/03 00:53:51;;;;;;;12.38;6.15;;;;;;;14.44;100.00;101998.69;5173867;28;20027;-75
2023/06/03 00:56:23;;;;;;;11.43;6.35;;;;;;;14.39;100.00;101994.72;5173011;28;20026;-75
2023/06/03 00:58:54;;;;;;;15.15;6.18;;;;;;;14.27;100.00;101989.50;5174480;28;20126;-75
2023/06/03 01:01:26;;;;;;;12.40;6.20;;;;;;;14.38;100.00;101993.06;5174253;28;20461;-75
2023/06/03 01:03:57;;;;;;;14.00;6.10;;;;;;;14.36;100.00;101999.31;5173435;28;20065;-75
2023/06/03 01:06:54;;;;;;;11.10;6.43;;;;;;;14.62;100.00;102004.22;5173503;28;20033;-75
2023/06/03 01:09:38;;;;;;;12.20;6.13;;;;;;;14.24;100.00;101996.81;5172949;28;20084;-75
2023/06/03 01:12:19;;;;;;;11.10;6.22;;;;;;;14.40;100.00;101988.53;5173876;28;20061;-75
2023/06/03 01:14:55;;;;;;;11.05;5.80;;;;;;;14.25;100.00;101996.72;5173721;28;20034;-75
2023/06/03 01:17:31;;;;;;;12.10;6.10;;;;;;;14.26;100.00;101995.75;5173196;28;20515;-75
2023/06/03 01:20:09;;;;;;;15.18;6.13;;;;;;;14.15;100.00;101987.88;5167039;28;20034;-75
2023/06/03 01:22:44;;;;;;;10.40;5.57;;;;;;;14.14;100.00;101991.50;5173864;28;20512;-75
2023/06/03 01:25:20;;;;;;;9.95;6.00;;;;;;;14.06;100.00;101994.75;5173352;28;20295;-74
2023/06/03 01:27:52;;;;;;;12.43;6.00;;;;;;;14.07;100.00;101998.22;5173140;28;20121;-74
2023/06/03 01:30:23;;;;;;;12.23;5.95;;;;;;;13.99;100.00;101993.56;5172687;28;20157;-76
2023/06/03 01:32:55;;;;;;;9.27;5.82;;;;;;;14.05;100.00;101992.22;5173463;28;20441;-74
2023/06/03 01:35:26;;;;;;;11.38;5.90;;;;;;;14.04;100.00;101991.38;5172505;28;20023;-74
2023/06/03 01:37:57;;;;;;;9.00;5.47;;;;;;;13.88;100.00;101986.53;5172815;28;20022;-74
2023/06/03 01:40:30;;;;;;;12.70;6.57;;;;;;;13.88;100.00;101983.06;5172677;28;20147;-75
2023/06/03 01:43:01;;;;;;;16.52;6.63;;;;;;;13.87;100.00;101994.56;5172226;28;20031;-75
2023/06/03 01:45:33;;;;;;;11.38;6.45;;;;;;;13.81;100.00;101992.41;5173258;28;20516;-75
2023/06/03 01:48:04;;;;;;;12.65;6.28;;;;;;;13.78;100.00;101992.66;5172804;28;20026;-75
2023/06/03 01:50:43;;;;;;;19.52;6.85;;;;;;;13.87;100.00;101984.88;5172784;28;20031;-75
2023/06/03 01:53:15;;;;;;;8.18;5.32;;;;;;;13.79;100.00;101989.09;5172616;28;20019;-75
2023/06/03 01:55:46;;;;;;;9.85;6.15;;;;;;;13.82;100.00;101992.28;5172712;28;20076;-75
2023/06/03 01:58:17;;;;;;;11.60;5.97;;;;;;;13.77;100.00;101983.91;5171691;28;20235;-75
2023/06/03 02:00:49;;;;;;;14.30;6.25;;;;;;;13.80;100.00;101988.13;5171982;28;20058;-74
2023/06/03 02:03:20;;;;;;;13.55;6.70;;;;;;;13.80;100.00;101991.59;5173234;28;20025;-75
2023/06/03 02:05:51;;;;;;;10.40;6.25;;;;;;;13.84;100.00;101990.38;5172558;28;20026;-75
2023/06/03 02:08:23;;;;;;;11.10;6.20;;;;;;;13.82;100.00;101986.19;5173238;28;20052;-75
2023/06/03 02:10:54;;;;;;;11.35;6.40;;;;;;;13.77;100.00;101991.81;5173156;28;20449;-75
2023/06/03 02:13:25;;;;;;;13.00;6.13;;;;;;;13.76;100.00;101994.59;5172495;28;20031;-75
2023/06/03 02:15:56;;;;;;;10.68;5.90;;;;;;;13.76;100.00;101982.25;5171851;28;20039;-75
2023/06/03 02:18:28;;;;;;;11.65;5.93;;;;;;;13.70;100.00;101982.72;5173488;28;20062;-75
2023/06/03 02:21:00;;;;;;;12.45;5.90;;;;;;;13.67;100.00;101988.25;5173120;28;20023;-75
2023/06/03 02:23:32;;;;;;;8.80;5.20;;;;;;;13.71;100.00;101989.66;5172578;28;20055;-75
2023/06/03 02:26:03;;;;;;;10.80;5.97;;;;;;;13.69;100.00;101982.88;5172533;28;20037;-75
2023/06/03 02:28:34;;;;;;;8.70;5.50;;;;;;;13.81;100.00;101989.78;5172758;28;20023;-75
2023/06/03 02:31:05;;;;;;;10.77;5.53;;;;;;;13.73;100.00;101986.94;5172516;28;20026;-75
2023/06/03 02:33:37;;;;;;;9.93;5.78;;;;;;;13.76;100.00;101986.69;5172332;28;20062;-75
2023/06/03 02:36:08;;;;;;;10.90;5.60;;;;;;;13.77;100.00;101983.91;5172521;28;20100;-75
2023/06/03 02:38:40;;;;;;;8.77;5.28;;;;;;;13.77;100.00;101983.91;5172972;28;20400;-75
2023/06/03 02:41:11;;;;;;;6.80;5.00;;;;;;;13.79;100.00;101991.72;5172299;28;20515;-74
2023/06/03 02:43:42;;;;;;;12.60;5.88;;;;;;;13.83;100.00;101993.16;5172626;28;20257;-74
2023/06/03 02:46:14;;;;;;;11.55;5.53;;;;;;;13.81;100.00;101980.06;5171847;28;20030;-75
2023/06/03 02:48:45;;;;;;;11.18;5.38;;;;;;;13.83;100.00;101983.44;5172242;28;20060;-75
2023/06/03 02:51:16;;;;;;;12.88;6.10;;;;;;;13.73;100.00;101994.81;5172115;28;20058;-74
2023/06/03 02:53:48;;;;;;;8.73;5.10;;;;;;;13.79;100.00;101992.56;5172285;28;20034;-75
2023/06/03 02:56:22;;;;;;;10.10;5.47;;;;;;;13.78;100.00;101992.66;5172468;28;20085;-75
2023/06/03 02:58:54;;;;;;;9.93;5.32;;;;;;;13.85;100.00;101997.31;5175454;28;20034;-75
2023/06/03 03:01:27;;;;;;;7.13;5.07;;;;;;;13.80;100.00;101998.66;5175079;28;20484;-75
2023/06/03 03:03:59;;;;;;;9.90;5.75;;;;;;;13.84;100.00;101989.53;5175483;28;20046;-75
2023/06/03 03:06:30;;;;;;;10.35;5.18;;;;;;;13.75;100.00;101980.59;5158142;28;20027;-75
2023/06/03 03:09:02;;;;;;;8.18;5.00;;;;;;;13.80;100.00;101982.84;5175622;28;20037;-74
2023/06/03 03:11:34;;;;;;;8.43;5.45;;;;;;;13.82;100.00;101991.44;5175283;28;20497;-75
2023/06/03 03:14:06;;;;;;;9.00;5.60;;;;;;;13.79;100.00;101989.09;5176093;28;20041;-75
2023/06/03 03:16:38;;;;;;;9.50;5.47;;;;;;;13.74;100.00;101981.53;5175114;28;20116;-75
2023/06/03 03:19:09;;;;;;;11.60;5.32;;;;;;;13.77;100.00;101999.72;5175334;28;20046;-75
2023/06/03 03:21:41;;;;;;;11.48;5.50;;;;;;;13.61;100.00;101986.13;5157341;28;20031;-75
2023/06/03 03:24:13;;;;;;;10.82;5.07;;;;;;;13.74;100.00;101999.13;5175974;28;20456;-75
2023/06/03 03:26:45;;;;;;;9.50;5.57;;;;;;;13.71;100.00;101997.56;5174725;28;20385;-74
2023/06/03 03:29:17;;;;;;;9.63;4.68;;;;;;;13.63;100.00;102003.44;5175041;28;20027;-74
2023/06/03 03:31:51;;;;;;;7.75;4.90;;;;;;;13.65;100.00;101997.25;5175769;28;20029;-74
2023/06/03 03:34:23;;;;;;;7.60;5.40;;;;;;;13.56;100.00;101999.66;5175154;28;20037;-74
2023/06/03 03:36:54;;;;;;;7.55;5.25;;;;;;;13.56;100.00;102002.28;5176228;28;20031;-73
2023/06/03 03:39:25;;;;;;;11.13;5.22;;;;;;;13.60;100.00;102000.25;5176274;28;20031;-73
2023/06/03 03:41:57;;;;;;;9.23;5.38;;;;;;;13.50;100.00;101999.28;5175471;28;20492;-73
2023/06/03 03:44:31;;;;;;;9.15;4.90;;;;;;;13.53;100.00;102001.69;5174017;28;20031;-73
2023/06/03 03:47:03;;;;;;;8.30;5.15;;;;;;;13.57;100.00;102005.75;5174211;28;20102;-73
2023/06/03 03:49:35;;;;;;;10.73;5.55;;;;;;;13.54;100.00;102006.81;5175922;28;20506;-73
2023/06/03 03:52:06;;;;;;;10.07;5.67;;;;;;;13.56;100.00;102001.41;5173957;28;20030;-74
2023/06/03 03:54:38;;;;;;;8.57;5.40;;;;;;;13.45;100.00;102001.44;5175525;28;20483;-73
2023/06/03 03:57:12;;;;;;;7.22;4.57;;;;;;;13.50;100.00;102002.75;5173931;28;20027;-74
2023/06/03 03:59:43;;;;;;;9.60;5.53;;;;;;;13.51;100.00;102003.59;5175043;28;20034;-73
2023/06/03 04:02:14;;;;;;;11.05;5.43;;;;;;;13.47;100.00;102000.34;5173831;28;20515;-73
2023/06/03 04:04:46;;;;;;;9.02;5.50;;;;;;;13.43;100.00;102000.72;5175679;28;20053;-74
2023/06/03 04:07:20;;;;;;;6.95;4.68;;;;;;;13.47;100.00;102004.78;5173667;28;20041;-73
2023/06/03 04:09:51;;;;;;;7.88;5.22;;;;;;;13.46;100.00;102005.75;5173754;28;20023;-73
2023/06/03 04:12:29;;;;;;;9.30;5.13;;;;;;;13.60;100.00;102003.72;5174216;28;20033;-73
2023/06/03 04:15:01;;;;;;;11.27;5.10;;;;;;;13.47;100.00;102003.00;5173376;28;20023;-74
2023/06/03 04:17:37;;;;;;;9.43;5.50;;;;;;;13.57;100.00;102003.13;5174929;28;20034;-73
2023/06/03 04:20:25;;;;;;;11.90;6.13;;;;;;;13.69;100.00;101998.66;5173742;28;20465;-73
2023/06/03 04:23:03;;;;;;;8.90;5.65;;;;;;;13.63;100.00;102013.16;5174371;28;20026;-74
2023/06/03 04:25:34;;;;;;;8.63;4.90;;;;;;;13.60;98.32;102008.97;5156845;28;20042;-74
2023/06/03 04:28:05;;;;;;;10.18;5.15;;;;;;;13.65;97.36;102010.41;5174784;28;20031;-73
2023/06/03 04:30:37;;;;;;;8.55;5.20;;;;;;;13.69;98.34;102014.47;5173880;28;20034;-73
2023/06/03 04:33:08;;;;;;;9.15;5.53;;;;;;;13.65;98.72;102015.69;5173282;28;20031;-73
2023/06/03 04:35:39;;;;;;;7.80;4.88;;;;;;;13.70;97.38;102019.59;5174989;28;20057;-73
2023/06/03 04:38:11;;;;;;;10.52;4.80;;;;;;;13.74;98.11;102018.41;5173686;28;20034;-73
2023/06/03 04:40:45;;;;;;;7.47;4.85;;;;;;;13.77;97.49;102014.69;5173234;28;20035;-74
2023/06/03 04:43:18;;;;;;;6.85;4.85;;;;;;;13.80;95.71;102020.56;5173663;28;20093;-73
2023/06/03 04:45:49;;;;;;;;;;;;;;;14.48;90.97;102020.34;5175973;28;20484;-73
2023/06/03 04:48:22;;;;;;;6.10;4.60;;;;;;;13.94;93.93;102023.88;5173633;28;20005;-73
2023/06/03 04:50:53;;;;;;;7.05;4.55;;;;;;;13.94;93.50;102027.38;5174139;28;20452;-73
2023/06/03 04:53:25;;;;;;;8.55;5.47;;;;;;;13.94;95.06;102019.47;5173517;28;20130;-73
2023/06/03 04:55:57;;;;;;;8.00;5.03;;;;;;;13.90;92.58;102030.34;5172810;28;20081;-74
2023/06/03 04:58:28;;;;;;;6.95;4.55;;;;;;;13.93;93.13;102027.47;5173945;28;20050;-74
2023/06/03 05:00:59;;;;;;;9.13;5.15;;;;;;;13.86;92.21;102020.06;5173231;28;20019;-74
2023/06/03 05:03:31;;;;;;;8.07;4.38;;;;;;;14.01;90.74;102025.06;5173126;28;20030;-74
2023/06/03 05:06:04;;;;;;;8.63;4.83;;;;;;;14.05;90.64;102022.06;5173445;28;20019;-74
2023/06/03 05:08:35;;;;;;;9.90;5.03;;;;;;;14.05;90.76;102023.84;5173547;28;20023;-74
2023/06/03 05:11:07;;;;;;;8.45;4.75;;;;;;;14.12;88.59;102028.50;5173890;28;20029;-73
2023/06/03 05:13:38;;;;;;;5.57;4.22;;;;;;;14.17;87.62;102027.28;5173778;28;20037;-73
2023/06/03 05:16:10;;;;;;;11.07;4.93;;;;;;;14.19;86.95;102023.56;5171637;28;20038;-74
2023/06/03 05:18:43;;;;;;;9.98;4.78;;;;;;;14.27;84.64;102023.78;5173112;28;20424;-74
2023/06/03 05:21:19;;;;;;;5.95;4.70;;;;;;;14.34;83.84;102024.13;5172702;28;20066;-74
2023/06/03 05:23:50;;;;;;;6.93;4.25;;;;;;;14.35;84.80;102034.53;5208570;23;20058;-67
2023/06/03 05:26:22;;;;;;;6.72;4.75;;;;;;;14.40;84.00;102031.53;5204863;28;20458;-68
2023/06/03 05:28:53;;;;;;;6.90;4.83;;;;;;;14.42;83.16;102026.13;5209258;28;20536;-68
2023/06/03 05:31:25;;;;;;;7.00;4.53;;;;;;;14.48;81.97;102023.81;5195185;28;20281;-68
2023/06/03 05:33:56;;;;;;;8.32;3.90;;;;;;;14.46;80.46;102017.00;5209414;28;20404;-68
2023/06/03 05:36:28;;;;;;;11.18;4.53;;;;;;;14.53;82.13;102034.03;5210431;28;20065;-68
2023/06/03 05:38:59;;;;;;;8.45;4.40;;;;;;;14.60;78.78;102028.09;5211583;28;20040;-68
2023/06/03 05:41:30;;;;;;;6.43;4.10;;;;;;;14.65;77.97;102022.44;5207382;28;20467;-68
2023/06/03 05:44:02;;;;;;;8.95;4.05;;;;;;;14.69;76.10;102023.03;5210229;28;20100;-68
2023/06/03 05:46:33;;;;;;;7.30;3.72;;;;;;;14.75;76.33;102026.00;5207761;28;20152;-68
2023/06/03 05:49:04;;;;;;;5.35;3.90;;;;;;;14.79;73.60;102026.59;5209116;28;20034;-68
2023/06/03 05:51:36;;;;;;;6.85;3.55;;;;;;;14.81;74.26;102025.50;5205984;28;20041;-68
2023/06/03 05:54:07;;;;;;;6.95;3.67;;;;;;;14.92;73.65;102024.56;5207761;28;20028;-68
2023/06/03 05:56:38;;;;;;;6.20;3.78;;;;;;;14.99;71.76;102027.53;5208713;28;20089;-67
2023/06/03 05:59:09;;;;;;;5.82;3.63;;;;;;;15.11;71.55;102023.84;5211160;28;20025;-68
2023/06/03 06:01:41;;;;;;;6.57;4.28;;;;;;;15.21;71.47;102032.66;5203134;28;20125;-68
2023/06/03 06:04:12;;;;;;;6.07;3.95;;;;;;;15.28;69.51;102031.16;5202048;28;20021;-68
2023/06/03 06:06:43;;;;;;;6.75;3.75;;;;;;;15.37;68.71;102026.06;5208449;28;20018;-68
2023/06/03 06:09:15;;;;;;;5.85;3.40;;;;;;;15.41;66.48;102032.75;5211344;28;20457;-68
2023/06/03 06:11:46;;;;;;;8.68;3.97;;;;;;;15.56;66.38;102023.50;5207589;28;20026;-68
2023/06/03 06:14:17;;;;;;;7.38;3.15;;;;;;;15.69;65.00;102025.94;5209355;28;20069;-68
2023/06/03 06:16:49;;;;;;;6.53;3.22;;;;;;;15.81;63.84;102022.22;5204926;28;20466;-68
2023/06/03 06:19:22;;;;;;;10.02;3.88;;;;;;;15.95;63.56;102023.66;5207373;28;20506;-68
2023/06/03 06:21:53;;;;;;;;;;;;;;;16.56;63.74;102031.34;5209550;28;20029;-68
2023/06/03 06:24:24;;;;;;;6.30;3.40;;;;;;;16.15;60.43;102024.50;5210037;28;19929;-68
2023/06/03 06:26:56;;;;;;;6.00;3.28;;;;;;;16.24;59.15;102029.78;5207925;28;20672;-68
2023/06/03 06:29:27;;;;;;;11.32;4.10;;;;;;;16.37;59.88;102031.34;5209369;28;20029;-68
2023/06/03 06:31:59;;;;;;;5.97;3.53;;;;;;;16.50;57.53;102034.53;5210362;28;20041;-68
2023/06/03 06:34:33;;;;;;;5.47;3.40;;;;;;;16.63;56.21;102037.72;5207342;28;20083;-68
2023/06/03 06:37:09;;;;;;;5.47;3.22;;;;;;;16.76;57.04;102040.94;5212638;28;20488;-68
2023/06/03 06:39:54;;;;;;;5.18;3.30;;;;;;;17.05;55.25;102041.84;5213238;28;20033;-68
2023/06/03 06:42:36;;;;;;;6.15;3.40;;;;;;;17.02;53.07;102037.69;5195453;28;20121;-68
2023/06/03 06:45:13;;;;;;;4.47;2.85;;;;;;;17.12;52.85;102037.66;5211514;28;20548;-67
2023/06/03 06:47:45;;;;;;;6.78;3.03;;;;;;;17.20;52.90;102038.63;5194181;28;20065;-66
2023/06/03 06:50:33;;;;;;;5.03;2.70;;;;;;;17.50;52.18;102036.69;5212524;28;20116;-66
2023/06/03 06:53:06;;;;;;;7.90;3.35;;;;;;;17.45;51.71;102039.78;5211859;28;20407;-66
2023/06/03 06:55:41;;;;;;;;;;;;;;;18.12;52.57;102040.41;5213407;28;20034;-66
2023/06/03 06:58:13;;;;;;;6.53;2.85;;;;;;;17.61;50.23;102041.78;5213604;28;19967;-66
2023/06/03 07:00:45;;;;;;;6.10;3.58;;;;;;;17.86;50.86;102042.94;5210468;28;20030;-66
2023/06/03 07:03:18;;;;;;;5.78;3.05;;;;;;;17.95;48.08;102034.09;5209972;28;20032;-66
2023/06/03 07:05:53;;;;;;;6.68;3.30;;;;;;;18.08;47.85;102035.56;5212514;28;20022;-66
2023/06/03 07:08:25;;;;;;;4.40;3.03;;;;;;;18.15;46.85;102044.59;5211855;28;20111;-66
2023/06/03 07:10:59;;;;;;;5.72;3.03;;;;;;;18.22;46.36;102030.56;5189288;28;20660;-66
2023/06/03 07:13:31;;;;;;;5.18;3.08;;;;;;;18.32;46.82;102040.28;5210455;28;20699;-66
2023/06/03 07:16:02;;;;;;;3.58;2.40;;;;;;;18.57;46.62;102028.06;5212201;28;20026;-67
2023/06/03 07:18:34;;;;;;;6.05;3.00;;;;;;;18.76;47.29;102027.06;5211577;28;20650;-67
2023/06/03 07:21:05;;;;;;;6.25;2.78;;;;;;;18.84;45.04;102033.28;5210274;28;20076;-67
2023/06/03 07:23:36;;;;;;;4.93;2.63;;;;;;;18.86;44.42;102033.09;5208207;28;20507;-67
2023/06/03 07:26:08;;;;;;;7.07;2.50;;;;;;;18.95;44.25;102034.84;5207878;28;20022;-67
2023/06/03 07:28:40;;;;;;;5.32;2.38;;;;;;;19.09;43.98;102036.94;5209821;28;20406;-67
2023/06/03 07:31:11;;;;;;;6.50;2.70;;;;;;;19.32;43.81;102033.69;5211670;28;20018;-67
2023/06/03 07:33:53;;;;;;;4.57;2.63;;;;;;;19.49;42.14;102038.13;5205486;28;20045;-67
2023/06/03 07:36:26;;;;;;;6.53;3.08;;;;;;;19.57;42.77;102037.31;5211415;28;20515;-67
2023/06/03 07:39:06;;;;;;;5.22;2.35;;;;;;;19.78;42.35;102021.81;5195042;28;20042;-67
2023/06/03 07:41:40;;;;;;;3.90;2.15;;;;;;;19.84;41.27;102029.13;5208797;28;20526;-67
2023/06/03 07:44:19;;;;;;;5.18;1.98;;;;;;;19.93;39.22;102024.69;5204930;28;20018;-68
2023/06/03 07:46:58;;;;;;;5.10;1.77;;;;;;;19.93;39.73;102022.03;5207498;28;20026;-67
2023/06/03 07:49:29;;;;;;;4.35;2.10;;;;;;;20.00;37.51;102024.84;5205949;28;20037;-67
2023/06/03 07:52:00;;;;;;;3.90;1.83;;;;;;;20.26;37.12;102030.03;5205559;28;20026;-67
2023/06/03 07:54:34;;;;;;;4.70;2.00;;;;;;;20.36;37.21;102031.53;5212425;28;20154;-67
2023/06/03 07:57:06;;;;;;;4.05;1.98;;;;;;;20.48;37.76;102040.03;5209187;28;20049;-67
2023/06/03 07:59:37;;;;;;;4.70;2.25;;;;;;;20.54;36.08;102041.25;5209939;28;20124;-67
2023/06/03 08:02:11;;;;;;;4.73;2.00;;;;;;;20.78;35.78;102037.72;5208892;28;20025;-68
2023/06/03 08:04:42;;;;;;;5.55;2.00;;;;;;;20.80;35.38;102044.56;5210508;28;20033;-67
2023/06/03 08:07:14;;;;;;;4.95;1.38;;;;;;;21.03;35.78;102030.53;5212351;28;20033;-67
2023/06/03 08:09:46;;;;;;;6.00;1.90;;;;;;;21.30;35.25;102037.28;5189068;28;20041;-67
2023/06/03 08:12:28;;;;;;;5.57;1.80;;;;;;;21.45;34.84;102038.25;5204586;28;20179;-67
2023/06/03 08:15:03;;;;;;;4.95;1.77;;;;;;;21.31;33.43;102028.28;5209408;28;20474;-67
2023/06/03 08:17:40;;;;;;;7.20;1.95;;;;;;;21.58;33.81;102035.84;5209493;28;20029;-67
2023/06/03 08:20:12;;;;;;;3.00;1.40;;;;;;;21.44;32.55;102028.63;5211146;28;20053;-67
2023/06/03 08:22:44;;;;;;;8.10;1.60;;;;;;;21.54;32.09;102039.06;5208553;28;20483;-69
2023/06/03 08:25:15;;;;;;;2.60;1.42;;;;;;;21.62;31.45;102037.16;5208328;28;20056;-67
2023/06/03 08:27:47;;;;;;;5.97;1.30;;;;;;;21.68;30.91;102029.50;5207527;28;20559;-68
2023/06/03 08:30:22;;;;;;;2.20;1.13;;;;;;;21.86;31.67;102027.41;5210209;28;20395;-69
2023/06/03 08:32:55;;;;;;;3.58;1.40;;;;;;;21.98;31.04;102019.81;5202830;28;20056;-68
2023/06/03 08:35:26;;;;;;;5.35;1.27;;;;;;;21.90;30.14;102034.06;5208962;28;20513;-68
2023/06/03 08:37:58;;;;;;;3.70;1.30;;;;;;;21.95;30.16;102037.00;5211589;28;20042;-68
2023/06/03 08:40:33;;;;;;;5.70;1.63;;;;;;;22.09;30.24;102044.25;5207680;28;20192;-68
2023/06/03 08:43:06;;;;;;;4.80;1.23;;;;;;;21.96;30.25;102032.50;5208298;28;20038;-67
2023/06/03 08:45:43;;;;;;;5.45;1.45;;;;;;;22.27;29.69;102029.81;5208133;28;20033;-67
2023/06/03 08:48:46;;;;;;;4.22;1.30;;;;;;;22.43;30.24;102024.38;5206645;28;20033;-67
2023/06/03 08:51:21;;;;;;;5.63;1.55;;;;;;;22.41;29.48;102020.19;5206322;28;20021;-67
2023/06/03 08:53:52;;;;;;;4.78;1.42;;;;;;;22.47;30.43;102022.16;5208219;28;20033;-68
2023/06/03 08:56:25;;;;;;;4.53;1.33;;;;;;;22.40;29.53;102024.72;5209070;28;20483;-67
2023/06/03 08:59:00;;;;;;;;;;;;;;;23.13;30.31;102030.41;5209736;28;20076;-68
2023/06/03 09:01:38;;;;;;;4.70;1.58;;;;;;;22.49;29.24;102031.63;5208927;28;19922;-68
2023/06/03 09:04:12;;;;;;;4.00;1.70;;;;;;;22.55;29.78;102036.28;5210895;28;20026;-67
2023/06/03 09:06:46;;;;;;;3.67;1.63;;;;;;;22.66;29.17;102027.00;5207614;28;20036;-67
2023/06/03 09:09:19;;;;;;;4.90;1.40;;;;;;;22.53;28.63;102016.91;5208563;28;20041;-68
2023/06/03 09:11:50;;;;;;;2.60;1.50;;;;;;;22.72;29.52;102028.94;5195764;28;20120;-67
2023/06/03 09:14:22;;;;;;;4.47;1.17;;;;;;;22.69;29.04;102017.78;5207657;28;20030;-67
2023/06/03 09:16:53;;;;;;;7.53;1.47;;;;;;;23.01;29.94;102017.47;5208772;28;20061;-67
2023/06/03 09:19:26;;;;;;;5.50;1.30;;;;;;;23.03;28.19;102027.97;5208156;28;20108;-67
2023/06/03 09:21:58;;;;;;;5.95;1.38;;;;;;;23.10;28.68;102034.25;5207840;28;20633;-68
2023/06/03 09:24:29;;;;;;;4.00;1.47;;;;;;;23.21;28.34;102020.44;5207398;28;20049;-68
2023/06/03 09:27:00;;;;;;;3.80;1.30;;;;;;;23.20;27.61;102045.50;5209433;28;20459;-68
2023/06/03 09:29:32;;;;;;;3.13;1.33;;;;;;;23.15;27.25;102031.88;5204599;28;20048;-68
2023/06/03 09:32:04;;;;;;;3.50;1.30;;;;;;;23.20;27.04;102023.28;5206544;28;20068;-68
2023/06/03 09:34:36;;;;;;;4.25;1.30;;;;;;;23.20;25.38;102025.97;5208926;28;20140;-67
2023/06/03 09:37:11;;;;;;;5.60;1.30;;;;;;;23.38;27.33;102025.59;5209173;28;21340;-68
2023/06/03 09:39:43;;;;;;;4.18;1.20;;;;;;;23.36;26.97;102024.94;5208121;28;20398;-67
2023/06/03 09:42:15;;;;;;;5.95;1.50;;;;;;;23.34;25.64;102032.34;5208818;28;20051;-67
2023/06/03 09:44:55;;;;;;;3.67;1.58;;;;;;;23.35;25.68;102016.09;5201491;28;20030;-68
2023/06/03 09:47:34;;;;;;;3.03;1.20;;;;;;;23.60;26.23;102023.78;5208625;28;20026;-68
2023/06/03 09:50:11;;;;;;;5.13;1.35;;;;;;;23.32;25.85;102027.16;5206679;28;20068;-67
2023/06/03 09:52:43;;;;;;;3.95;1.30;;;;;;;23.50;26.40;102027.59;5204886;28;20026;-67
2023/06/03 09:55:15;;;;;;;2.70;1.10;;;;;;;23.49;25.17;102033.16;5207739;28;20026;-67
2023/06/03 09:58:09;;;;;;;3.05;1.27;;;;;;;23.85;24.94;102033.19;5208509;28;20158;-68
2023/06/03 10:00:51;;;;;;;3.80;1.10;;;;;;;23.76;24.92;102024.44;5207598;28;20038;-67
2023/06/03 10:03:25;;;;;;;4.03;1.05;;;;;;;23.63;25.00;102036.81;5207913;28;20136;-68
2023/06/03 10:05:56;;;;;;;4.50;1.10;;;;;;;23.66;24.25;102031.06;5201764;28;20541;-67
2023/06/03 10:08:31;;;;;;;3.10;1.10;;;;;;;23.87;24.39;102022.31;5211821;28;20052;-68
2023/06/03 10:11:02;;;;;;;1.95;0.88;;;;;;;23.73;22.45;102027.50;5212274;28;20383;-67
2023/06/03 10:13:33;;;;;;;2.87;1.07;;;;;;;23.72;23.04;102030.38;5206464;28;20030;-67
2023/06/03 10:16:10;;;;;;;2.40;1.00;;;;;;;23.78;23.63;102030.44;5200942;28;20054;-68
2023/06/03 10:18:42;;;;;;;2.97;1.08;;;;;;;23.58;24.05;102023.16;5206157;28;20304;-68
2023/06/03 10:21:13;;;;;;;2.60;1.10;;;;;;;23.85;23.76;102024.34;5205196;28;20342;-67
2023/06/03 10:23:45;;;;;;;4.90;0.90;;;;;;;24.04;23.73;102027.22;5205720;28;20511;-67
2023/06/03 10:26:18;;;;;;;2.72;0.80;;;;;;;24.07;21.95;102017.97;5210851;28;20022;-68
2023/06/03 10:28:49;;;;;;;2.92;1.23;;;;;;;24.30;22.67;102022.31;5209443;28;20026;-67
2023/06/03 10:31:22;;;;;;;4.70;1.50;;;;;;;24.44;22.88;102021.44;5205600;28;20036;-68
2023/06/03 10:33:54;;;;;;;3.88;1.20;;;;;;;24.28;22.92;102022.47;5208931;28;20491;-68
2023/06/03 10:36:26;;;;;;;4.18;1.20;;;;;;;24.48;22.03;102010.16;5210463;28;20399;-68
2023/06/03 10:39:05;;;;;;;2.17;1.10;;;;;;;24.47;22.98;101999.59;5209734;28;20033;-67
2023/06/03 10:41:38;;;;;;;4.25;1.27;;;;;;;24.40;22.30;102018.31;5191989;28;20598;-68
2023/06/03 10:44:09;;;;;;;3.63;1.00;;;;;;;24.59;22.67;102013.31;5207526;28;20085;-67
2023/06/03 10:46:49;;;;;;;5.47;1.40;;;;;;;24.63;21.41;102017.28;5209665;28;20113;-68
2023/06/03 10:49:24;;;;;;;2.08;1.00;;;;;;;24.50;23.54;102016.13;5211005;28;20108;-68
2023/06/03 10:52:14;;;;;;;2.85;0.98;;;;;;;24.85;23.36;102008.16;5209645;28;20503;-68
2023/06/03 10:55:13;;;;;;;4.22;1.08;;;;;;;24.84;22.83;102008.31;5207259;28;20046;-67
2023/06/03 10:57:47;;;;;;;3.67;1.05;;;;;;;24.63;21.68;102009.22;5210830;28;20494;-68
2023/06/03 11:00:55;;;;;;;3.50;1.02;;;;;;;25.02;23.03;102015.88;5212992;28;20113;-67
2023/06/03 11:03:31;;;;;;;2.17;0.93;;;;;;;24.76;21.71;102014.66;5192509;28;20025;-68
2023/06/03 11:06:28;;;;;;;1.50;0.95;;;;;;;25.06;22.39;102009.09;5209901;28;20053;-68
2023/06/03 11:09:02;;;;;;;3.08;1.10;;;;;;;25.00;23.04;102008.88;5208425;28;20063;-68
2023/06/03 11:11:44;;;;;;;6.93;1.00;;;;;;;25.16;21.05;102006.91;5209625;28;20116;-67
2023/06/03 11:14:24;;;;;;;2.95;0.95;;;;;;;25.26;22.12;102004.66;5210444;28;20033;-67
2023/06/03 11:16:58;;;;;;;2.30;1.20;;;;;;;25.34;22.72;102004.50;5188472;28;20112;-69
2023/06/03 11:19:45;;;;;;;3.35;0.90;;;;;;;25.26;21.47;102004.66;5208530;28;20503;-69
2023/06/03 11:22:31;;;;;;;4.50;0.90;;;;;;;25.53;20.55;102010.16;5203936;28;20372;-69
2023/06/03 11:25:03;;;;;;;2.50;0.95;;;;;;;25.28;19.82;102013.38;5214949;22;20058;-74
2023/06/03 11:27:35;;;;;;;1.75;0.82;;;;;;;25.29;21.58;102012.31;5187480;28;20492;-72
2023/06/03 11:30:07;;;;;;;2.37;0.80;;;;;;;25.31;19.74;102007.59;5195215;28;20015;-72
2023/06/03 11:32:38;;;;;;;2.75;1.05;;;;;;;25.41;19.88;102005.34;5180434;28;20263;-72
2023/06/03 11:35:10;;;;;;;3.13;0.93;;;;;;;25.58;20.68;102008.53;5192034;28;20061;-73
2023/06/03 11:37:41;;;;;;;2.33;0.70;;;;;;;25.54;20.95;102011.81;5189636;28;20076;-74
2023/06/03 11:40:16;;;;;;;2.50;0.80;;;;;;;25.66;21.26;102011.03;5190708;28;20036;-73
2023/06/03 11:42:50;;;;;;;2.22;0.90;;;;;;;25.48;20.23;102016.94;5192627;28;20022;-73
2023/06/03 11:45:24;;;;;;;4.72;1.05;;;;;;;25.46;20.66;102012.84;5192397;28;20101;-73
2023/06/03 11:48:07;;;;;;;3.33;0.90;;;;;;;25.73;20.70;102005.69;5185701;28;20403;-72
2023/06/03 11:50:46;;;;;;;11.02;1.25;;;;;;;25.85;20.31;102005.97;5190350;28;20030;-73